createdAt,value
2023-06-10T00:00:07.344Z,10.98
2023-06-10T00:02:40.643Z,8.68
2023-06-10T00:05:09.969Z,12.03
2023-06-10T00:07:42.305Z,11.27
2023-06-10T00:10:11.620Z,9.35
2023-06-10T00:12:39.732Z,9.65
2023-06-10T00:15:08.581Z,10.57
2023-06-10T00:17:40.259Z,7.87
2023-06-10T00:20:14.552Z,11.18
2023-06-10T00:22:46.810Z,8.57
2023-06-10T00:25:14.753Z,11.48
2023-06-10T00:27:42.577Z,8.55
2023-06-10T00:30:10.771Z,9.40
2023-06-10T00:32:39.087Z,6.80
2023-06-10T00:35:08.259Z,7.55
2023-06-10T00:37:37.106Z,8.68
2023-06-10T00:40:05.807Z,7.55
2023-06-10T00:42:33.709Z,7.10
2023-06-10T00:45:01.375Z,8.48
2023-06-10T00:47:29.632Z,8.70
2023-06-10T00:49:57.545Z,10.15
2023-06-10T00:52:27.925Z,7.00
2023-06-10T00:54:55.759Z,5.83
2023-06-10T00:57:23.529Z,10.38
2023-06-10T00:59:51.095Z,11.20
2023-06-10T01:02:18.840Z,7.65
2023-06-10T01:04:49.807Z,11.00
2023-06-10T01:07:20.914Z,7.47
2023-06-10T01:10:06.688Z,11.30
2023-06-10T01:12:41.408Z,10.02
2023-06-10T01:15:11.345Z,6.45
2023-06-10T01:18:00.804Z,8.82
2023-06-10T01:20:33.352Z,7.53
2023-06-10T01:23:02.095Z,6.95
2023-06-10T01:25:33.691Z,8.85
2023-06-10T01:28:07.673Z,11.07
2023-06-10T01:30:48.565Z,7.35
2023-06-10T01:33:19.209Z,10.03
2023-06-10T01:35:48.825Z,8.65
2023-06-10T01:38:16.975Z,10.73
2023-06-10T01:40:44.789Z,7.53
2023-06-10T01:43:12.759Z,8.52
2023-06-10T01:45:40.770Z,6.47
2023-06-10T01:48:09.017Z,6.55
2023-06-10T01:50:36.813Z,6.50
2023-06-10T01:53:06.684Z,8.65
2023-06-10T01:55:34.178Z,9.60
2023-06-10T01:58:01.960Z,10.20
2023-06-10T02:00:29.505Z,9.32
2023-06-10T02:02:57.482Z,8.60
2023-06-10T02:05:26.004Z,7.55
2023-06-10T02:07:53.602Z,9.55
2023-06-10T02:10:23.385Z,9.60
2023-06-10T02:12:51.106Z,7.50
2023-06-10T02:15:18.643Z,7.37
2023-06-10T02:17:50.158Z,7.10
2023-06-10T02:20:17.735Z,7.43
2023-06-10T02:22:45.287Z,8.47
2023-06-10T02:25:13.411Z,6.72
2023-06-10T02:27:40.879Z,7.57
2023-06-10T02:30:11.321Z,7.87
2023-06-10T02:32:39.458Z,10.02
2023-06-10T02:35:07.630Z,11.80
2023-06-10T02:37:35.397Z,12.77
2023-06-10T02:40:04.622Z,17.08
2023-06-10T02:42:33.108Z,10.50
2023-06-10T02:45:01.984Z,8.75
2023-06-10T02:47:31.376Z,13.17
2023-06-10T02:49:59.317Z,14.05
2023-06-10T02:52:26.944Z,11.77
2023-06-10T02:54:55.060Z,12.10
2023-06-10T02:57:22.730Z,11.57
2023-06-10T02:59:50.264Z,12.47
2023-06-10T03:02:18.085Z,11.32
2023-06-10T03:04:46.255Z,11.43
2023-06-10T03:07:15.037Z,11.32
2023-06-10T03:09:45.516Z,11.82
2023-06-10T03:12:13.935Z,10.80
2023-06-10T03:14:42.573Z,12.60
2023-06-10T03:17:11.029Z,12.10
2023-06-10T03:19:39.146Z,11.75
2023-06-10T03:22:14.213Z,11.20
2023-06-10T03:24:42.566Z,13.97
2023-06-10T03:27:14.415Z,11.35
2023-06-10T03:29:42.856Z,14.55
2023-06-10T03:32:11.670Z,9.40
2023-06-10T03:34:39.804Z,9.75
2023-06-10T03:37:07.914Z,12.83
2023-06-10T03:39:35.672Z,11.27
2023-06-10T03:42:03.456Z,10.38
2023-06-10T03:44:32.528Z,10.00
2023-06-10T03:47:01.091Z,9.77
2023-06-10T03:49:30.553Z,10.00
2023-06-10T03:51:58.911Z,11.35
2023-06-10T03:54:26.831Z,10.70
2023-06-10T03:56:54.418Z,10.30
2023-06-10T03:59:22.262Z,10.43
2023-06-10T04:01:49.789Z,8.70
2023-06-10T04:04:18.190Z,9.02
2023-06-10T04:06:46.143Z,9.60
2023-06-10T04:09:13.940Z,12.23
2023-06-10T04:11:41.747Z,10.52
2023-06-10T04:14:09.798Z,10.23
2023-06-10T04:16:37.699Z,10.98
2023-06-10T04:19:06.808Z,9.38
2023-06-10T04:21:34.483Z,9.18
2023-06-10T04:24:02.286Z,9.60
2023-06-10T04:26:30.359Z,10.77
2023-06-10T04:28:57.841Z,8.80
2023-06-10T04:31:25.316Z,9.75
2023-06-10T04:33:53.112Z,8.93
2023-06-10T04:36:21.111Z,7.45
2023-06-10T04:38:48.688Z,9.23
2023-06-10T04:41:16.528Z,7.32
2023-06-10T04:43:44.040Z,7.05
2023-06-10T04:46:12.153Z,7.85
2023-06-10T04:48:40.132Z,9.55
2023-06-10T04:51:07.679Z,10.17
2023-06-10T04:53:36.029Z,6.78
2023-06-10T04:56:03.990Z,6.93
2023-06-10T04:58:31.481Z,7.12
2023-06-10T05:00:59.072Z,5.20
2023-06-10T05:03:27.777Z,8.77
2023-06-10T05:05:55.604Z,5.28
2023-06-10T05:08:23.157Z,7.22
2023-06-10T05:10:51.168Z,5.85
2023-06-10T05:13:19.013Z,6.53
2023-06-10T05:15:47.576Z,7.27
2023-06-10T05:18:15.358Z,6.43
2023-06-10T05:20:42.946Z,5.30
2023-06-10T05:23:10.501Z,8.15
2023-06-10T05:25:38.348Z,6.87
2023-06-10T05:28:05.777Z,5.27
2023-06-10T05:30:33.342Z,6.50
2023-06-10T05:33:01.197Z,7.65
2023-06-10T05:35:28.692Z,6.12
2023-06-10T05:37:56.185Z,7.07
2023-06-10T05:40:24.417Z,6.30
2023-06-10T05:42:51.921Z,7.45
2023-06-10T05:45:19.532Z,7.12
2023-06-10T05:47:47.390Z,6.00
2023-06-10T05:50:15.019Z,5.28
2023-06-10T05:52:42.587Z,6.00
2023-06-10T05:55:11.291Z,6.10
2023-06-10T05:57:39.277Z,8.02
2023-06-10T06:00:07.530Z,6.20
2023-06-10T06:02:40.040Z,5.70
2023-06-10T06:05:08.638Z,5.50
2023-06-10T06:07:36.646Z,7.57
2023-06-10T06:10:04.503Z,7.95
2023-06-10T06:12:32.483Z,6.65
2023-06-10T06:15:00.155Z,9.10
2023-06-10T06:17:27.763Z,7.20
2023-06-10T06:19:55.545Z,6.93
2023-06-10T06:22:23.383Z,6.20
2023-06-10T06:24:51.084Z,5.62
2023-06-10T06:27:18.986Z,6.30
2023-06-10T06:29:49.124Z,6.33
2023-06-10T06:32:17.234Z,6.28
2023-06-10T06:34:44.985Z,6.43
2023-06-10T06:37:12.567Z,6.70
2023-06-10T06:39:41.479Z,5.85
2023-06-10T06:42:09.454Z,6.63
2023-06-10T06:44:38.547Z,5.62
2023-06-10T06:47:06.448Z,6.60
2023-06-10T06:49:34.290Z,6.15
2023-06-10T06:52:01.844Z,5.45
2023-06-10T06:54:30.182Z,7.80
2023-06-10T06:56:58.201Z,6.03
2023-06-10T06:59:26.722Z,6.78
2023-06-10T07:01:55.830Z,7.93
2023-06-10T07:04:23.994Z,7.37
2023-06-10T07:06:51.803Z,6.03
2023-06-10T07:09:19.459Z,5.32
2023-06-10T07:11:47.343Z,7.20
2023-06-10T07:14:14.854Z,6.53
2023-06-10T07:16:42.427Z,5.60
2023-06-10T07:19:10.247Z,5.90
2023-06-10T07:21:38.906Z,11.40
2023-06-10T07:24:06.934Z,6.50
2023-06-10T07:26:35.064Z,5.97
2023-06-10T07:29:02.726Z,9.00
2023-06-10T07:31:30.475Z,5.63
2023-06-10T07:33:58.293Z,5.95
2023-06-10T07:36:28.402Z,5.95
2023-06-10T07:38:56.420Z,8.43
2023-06-10T07:41:26.301Z,7.68
2023-06-10T07:43:55.712Z,5.73
2023-06-10T07:46:24.287Z,8.93
2023-06-10T07:48:53.041Z,5.95
2023-06-10T07:51:20.614Z,6.05
2023-06-10T07:53:48.170Z,6.20
2023-06-10T07:56:16.030Z,5.80
2023-06-10T07:58:43.536Z,5.85
2023-06-10T08:01:11.099Z,6.18
2023-06-10T08:03:38.915Z,6.75
2023-06-10T08:06:06.886Z,6.85
2023-06-10T08:08:35.769Z,8.03
2023-06-10T08:11:03.610Z,7.47
2023-06-10T08:13:31.173Z,8.23
2023-06-10T08:15:58.686Z,6.80
2023-06-10T08:18:26.754Z,7.35
2023-06-10T08:20:54.281Z,8.77
2023-06-10T08:23:21.905Z,6.55
2023-06-10T08:25:49.965Z,7.70
2023-06-10T08:28:17.435Z,5.37
2023-06-10T08:30:45.302Z,6.72
2023-06-10T08:33:13.189Z,5.93
2023-06-10T08:35:40.869Z,7.55
2023-06-10T08:38:08.470Z,7.75
2023-06-10T08:40:36.768Z,7.53
2023-06-10T08:43:09.020Z,7.35
2023-06-10T08:45:37.990Z,8.07
2023-06-10T08:48:07.728Z,6.95
2023-06-10T08:50:40.056Z,5.70
2023-06-10T08:53:08.377Z,5.35
2023-06-10T08:55:39.517Z,5.97
2023-06-10T08:58:07.223Z,6.50
2023-06-10T09:00:37.022Z,7.10
2023-06-10T09:03:05.935Z,6.12
2023-06-10T09:05:37.704Z,6.40
2023-06-10T09:08:08.093Z,6.68
2023-06-10T09:10:35.849Z,5.83
2023-06-10T09:13:03.496Z,7.72
2023-06-10T09:15:31.498Z,5.25
2023-06-10T09:18:00.688Z,5.75
2023-06-10T09:20:28.188Z,5.70
2023-06-10T09:22:56.023Z,5.50
2023-06-10T09:25:37.115Z,6.20
2023-06-10T09:28:05.958Z,5.43
2023-06-10T09:30:34.748Z,6.28
2023-06-10T09:33:04.241Z,5.32
2023-06-10T09:35:33.115Z,6.83
2023-06-10T09:38:01.756Z,5.37
2023-06-10T09:40:29.361Z,6.70
2023-06-10T09:43:01.332Z,4.65
2023-06-10T09:45:32.982Z,7.72
2023-06-10T09:48:01.716Z,6.23
2023-06-10T09:50:29.472Z,5.53
2023-06-10T09:52:57.292Z,5.78
2023-06-10T09:55:25.243Z,8.27
2023-06-10T09:57:55.190Z,6.05
2023-06-10T10:00:23.831Z,4.97
2023-06-10T10:02:53.561Z,4.93
2023-06-10T10:05:22.717Z,4.93
2023-06-10T10:07:50.597Z,5.37
2023-06-10T10:10:20.508Z,5.97
2023-06-10T10:12:49.273Z,3.83
2023-06-10T10:15:18.699Z,6.65
2023-06-10T10:17:49.658Z,5.57
2023-06-10T10:20:20.233Z,5.10
2023-06-10T10:22:48.880Z,6.10
2023-06-10T10:25:24.525Z,6.40
2023-06-10T10:27:54.735Z,6.85
2023-06-10T10:30:23.336Z,5.80
2023-06-10T10:33:08.506Z,7.03
2023-06-10T10:35:38.860Z,5.60
2023-06-10T10:38:07.560Z,7.87
2023-06-10T10:40:35.382Z,5.45
2023-06-10T10:43:03.777Z,7.03
2023-06-10T10:45:31.275Z,5.45
2023-06-10T10:47:59.062Z,5.87
2023-06-10T10:50:31.866Z,6.80
2023-06-10T10:53:04.081Z,6.32
2023-06-10T10:55:32.230Z,7.95
2023-06-10T10:58:04.464Z,4.95
2023-06-10T11:00:46.134Z,7.95
2023-06-10T11:03:15.929Z,6.20
2023-06-10T11:05:49.051Z,6.80
2023-06-10T11:08:31.850Z,7.10
2023-06-10T11:11:00.541Z,6.53
2023-06-10T11:13:28.654Z,6.97
2023-06-10T11:16:00.080Z,7.13
2023-06-10T11:18:34.154Z,7.40
2023-06-10T11:21:04.044Z,6.35
2023-06-10T11:23:33.562Z,5.93
2023-06-10T11:26:12.012Z,6.30
2023-06-10T11:28:40.619Z,8.17
2023-06-10T11:31:08.564Z,8.88
2023-06-10T11:33:39.904Z,7.75
2023-06-10T11:36:08.978Z,11.07
2023-06-10T11:38:36.894Z,17.70
2023-06-10T11:41:04.585Z,7.80
2023-06-10T11:43:32.576Z,6.93
2023-06-10T11:46:00.995Z,7.05
2023-06-10T11:48:31.490Z,5.80
2023-06-10T11:50:59.383Z,6.60
2023-06-10T11:53:27.066Z,6.93
2023-06-10T11:55:55.287Z,8.07
2023-06-10T11:58:23.681Z,11.73
2023-06-10T12:00:54.327Z,10.35
2023-06-10T12:03:24.943Z,7.97
2023-06-10T12:06:02.942Z,6.40
2023-06-10T12:08:31.190Z,6.35
2023-06-10T12:10:59.272Z,6.43
2023-06-10T12:13:30.058Z,7.47
2023-06-10T12:16:08.693Z,6.90
2023-06-10T12:18:36.659Z,5.45
2023-06-10T12:21:04.805Z,6.47
2023-06-10T12:23:33.222Z,5.20
2023-06-10T12:26:01.011Z,6.32
2023-06-10T12:28:28.909Z,5.90
2023-06-10T12:31:09.087Z,4.93
2023-06-10T12:33:36.960Z,6.40
2023-06-10T12:36:05.248Z,6.00
2023-06-10T12:38:32.798Z,6.07
2023-06-10T12:41:05.104Z,5.20
2023-06-10T12:43:33.647Z,5.95
2023-06-10T12:46:11.470Z,7.35
2023-06-10T12:48:50.604Z,5.25
2023-06-10T12:51:18.440Z,8.23
2023-06-10T12:53:46.221Z,7.10
2023-06-10T12:56:13.848Z,7.22
2023-06-10T12:58:41.596Z,9.35
2023-06-10T13:01:09.905Z,7.07
2023-06-10T13:03:39.430Z,6.85
2023-06-10T13:06:08.108Z,11.30
2023-06-10T13:08:35.637Z,10.40
2023-06-10T13:11:03.155Z,10.68
2023-06-10T13:13:30.972Z,12.02
2023-06-10T13:15:58.420Z,6.97
2023-06-10T13:18:27.048Z,8.33
2023-06-10T13:20:54.822Z,9.10
2023-06-10T13:23:22.915Z,6.10
2023-06-10T13:25:50.441Z,6.53
2023-06-10T13:28:18.284Z,6.10
2023-06-10T13:30:46.087Z,5.43
2023-06-10T13:33:13.747Z,4.87
2023-06-10T13:35:42.463Z,5.37
2023-06-10T13:38:10.023Z,5.75
2023-06-10T13:40:37.534Z,5.50
2023-06-10T13:43:07.505Z,4.00
2023-06-10T13:45:35.325Z,5.60
2023-06-10T13:48:05.321Z,5.62
2023-06-10T13:50:33.354Z,5.37
2023-06-10T13:53:04.322Z,5.28
2023-06-10T13:55:32.168Z,5.43
2023-06-10T13:58:00.567Z,5.50
2023-06-10T14:00:29.396Z,5.60
2023-06-10T14:02:57.664Z,4.53
2023-06-10T14:05:25.311Z,4.45
2023-06-10T14:07:52.812Z,4.17
2023-06-10T14:10:20.595Z,4.43
2023-06-10T14:12:48.010Z,4.75
2023-06-10T14:15:15.750Z,5.72
2023-06-10T14:17:43.588Z,5.50
2023-06-10T14:20:11.757Z,4.17
2023-06-10T14:22:39.273Z,4.95
2023-06-10T14:25:08.012Z,4.28
2023-06-10T14:27:35.969Z,4.45
2023-06-10T14:30:04.674Z,5.07
2023-06-10T14:32:32.868Z,6.00
2023-06-10T14:35:00.511Z,6.85
2023-06-10T14:37:28.028Z,6.55
2023-06-10T14:39:55.901Z,4.87
2023-06-10T14:42:23.537Z,4.32
2023-06-10T14:44:51.834Z,5.33
2023-06-10T14:47:19.720Z,4.57
2023-06-10T14:49:47.297Z,5.40
2023-06-10T14:52:14.789Z,5.28
2023-06-10T14:54:42.583Z,5.60
2023-06-10T14:57:12.620Z,6.77
2023-06-10T14:59:40.063Z,5.30
2023-06-10T15:02:07.935Z,4.95
2023-06-10T15:04:36.101Z,4.55
2023-06-10T15:07:03.799Z,5.68
2023-06-10T15:09:32.932Z,5.70
2023-06-10T15:12:04.986Z,6.93
2023-06-10T15:14:32.960Z,4.37
2023-06-10T15:17:01.430Z,5.43
2023-06-10T15:19:29.073Z,5.43
2023-06-10T15:21:56.823Z,5.27
2023-06-10T15:24:24.564Z,4.93
2023-06-10T15:26:52.100Z,5.03
2023-06-10T15:29:19.922Z,5.32
2023-06-10T15:31:47.430Z,4.85
2023-06-10T15:34:15.010Z,6.07
2023-06-10T15:36:42.822Z,5.47
2023-06-10T15:39:10.400Z,6.05
2023-06-10T15:41:37.894Z,6.62
2023-06-10T15:44:06.026Z,4.50
2023-06-10T15:46:35.455Z,6.77
2023-06-10T15:49:03.957Z,4.87
2023-06-10T15:51:31.904Z,5.78
2023-06-10T15:54:02.213Z,5.47
2023-06-10T15:56:29.772Z,6.03
2023-06-10T15:58:57.550Z,6.53
2023-06-10T16:01:25.186Z,5.10
2023-06-10T16:03:53.230Z,5.80
2023-06-10T16:06:21.003Z,5.82
2023-06-10T16:08:48.646Z,6.53
2023-06-10T16:11:16.560Z,8.53
2023-06-10T16:13:44.149Z,5.60
2023-06-10T16:16:11.728Z,5.90
2023-06-10T16:18:39.579Z,7.05
2023-06-10T16:21:07.331Z,6.07
2023-06-10T16:23:35.057Z,5.43
2023-06-10T16:26:02.869Z,6.37
2023-06-10T16:28:30.332Z,5.37
2023-06-10T16:30:57.994Z,5.10
2023-06-10T16:33:25.955Z,5.47
2023-06-10T16:35:53.456Z,6.63
2023-06-10T16:38:21.249Z,6.32
2023-06-10T16:40:49.242Z,5.97
2023-06-10T16:43:16.743Z,7.65
2023-06-10T16:45:44.313Z,8.38
2023-06-10T16:48:13.997Z,5.07
2023-06-10T16:50:41.593Z,5.85
2023-06-10T16:53:09.158Z,8.07
2023-06-10T16:55:39.537Z,6.90
2023-06-10T16:58:07.155Z,5.68
2023-06-10T17:00:35.011Z,8.13
2023-06-10T17:03:02.923Z,6.68
2023-06-10T17:05:30.538Z,7.07
2023-06-10T17:07:58.148Z,10.35
2023-06-10T17:10:25.929Z,5.43
2023-06-10T17:12:53.458Z,7.73
2023-06-10T17:15:21.021Z,8.13
2023-06-10T17:17:48.919Z,6.65
2023-06-10T17:20:16.484Z,8.82
2023-06-10T17:22:44.033Z,6.10
2023-06-10T17:25:12.253Z,6.30
2023-06-10T17:27:40.048Z,5.93
2023-06-10T17:30:08.208Z,6.12
2023-06-10T17:32:38.220Z,5.37
2023-06-10T17:35:06.323Z,6.50
2023-06-10T17:37:34.098Z,9.23
2023-06-10T17:40:02.138Z,6.70
2023-06-10T17:42:29.803Z,5.85
2023-06-10T17:44:57.285Z,7.22
2023-06-10T17:47:25.288Z,6.40
2023-06-10T17:49:52.893Z,9.87
2023-06-10T17:52:20.384Z,6.03
2023-06-10T17:54:48.171Z,8.98
2023-06-10T17:57:15.790Z,8.02
2023-06-10T17:59:43.605Z,8.75
2023-06-10T18:02:11.502Z,5.73
2023-06-10T18:04:39.552Z,7.47
2023-06-10T18:07:07.174Z,9.18
2023-06-10T18:09:34.636Z,6.90
2023-06-10T18:12:02.471Z,11.50
2023-06-10T18:14:29.966Z,6.77
2023-06-10T18:16:57.542Z,6.60
2023-06-10T18:19:25.312Z,7.47
2023-06-10T18:21:52.797Z,7.75
2023-06-10T18:24:22.213Z,7.03
2023-06-10T18:26:50.558Z,7.97
2023-06-10T18:29:18.155Z,8.35
2023-06-10T18:31:45.848Z,8.85
2023-06-10T18:34:13.665Z,6.20
2023-06-10T18:36:41.285Z,7.45
2023-06-10T18:39:09.174Z,7.73
2023-06-10T18:41:37.044Z,6.78
2023-06-10T18:44:04.601Z,7.18
2023-06-10T18:46:32.245Z,9.05
2023-06-10T18:49:00.207Z,9.02
2023-06-10T18:51:27.769Z,6.10
2023-06-10T18:53:55.345Z,16.23
2023-06-10T18:56:23.172Z,8.93
2023-06-10T18:58:51.014Z,8.60
2023-06-10T19:01:18.691Z,9.23
2023-06-10T19:03:48.074Z,8.33
2023-06-10T19:06:15.797Z,8.85
2023-06-10T19:08:43.284Z,10.73
2023-06-10T19:11:11.179Z,10.40
2023-06-10T19:13:38.798Z,9.05
2023-06-10T19:16:08.224Z,7.97
2023-06-10T19:18:36.326Z,10.73
2023-06-10T19:21:07.724Z,10.13
2023-06-10T19:23:37.353Z,8.48
2023-06-10T19:26:05.039Z,10.35
2023-06-10T19:28:32.555Z,9.17
2023-06-10T19:31:00.405Z,8.75
2023-06-10T19:33:27.961Z,11.82
2023-06-10T19:35:56.537Z,8.82
2023-06-10T19:38:24.384Z,10.45
2023-06-10T19:40:52.063Z,9.53
2023-06-10T19:43:19.624Z,7.87
2023-06-10T19:45:47.426Z,14.00
2023-06-10T19:48:15.382Z,8.05
2023-06-10T19:50:42.914Z,10.15
2023-06-10T19:53:10.688Z,7.30
2023-06-10T19:55:38.916Z,7.85
2023-06-10T19:58:06.504Z,6.82
2023-06-10T20:00:34.511Z,15.40
2023-06-10T20:03:03.328Z,9.65
2023-06-10T20:05:31.481Z,6.63
2023-06-10T20:07:59.586Z,6.43
2023-06-10T20:10:27.625Z,8.73
2023-06-10T20:12:55.127Z,8.18
2023-06-10T20:15:22.739Z,8.50
2023-06-10T20:17:52.849Z,7.13
2023-06-10T20:20:20.514Z,8.00
2023-06-10T20:22:48.035Z,8.48
2023-06-10T20:25:17.204Z,10.18
2023-06-10T20:27:44.805Z,8.02
2023-06-10T20:30:13.775Z,9.77
2023-06-10T20:32:41.625Z,6.55
2023-06-10T20:35:09.906Z,7.35
2023-06-10T20:37:37.691Z,8.93
2023-06-10T20:40:06.502Z,8.32
2023-06-10T20:42:34.317Z,8.47
2023-06-10T20:45:02.017Z,8.98
2023-06-10T20:47:29.967Z,8.02
2023-06-10T20:49:57.459Z,8.55
2023-06-10T20:52:25.097Z,7.70
2023-06-10T20:54:52.877Z,9.53
2023-06-10T20:57:20.469Z,8.15
2023-06-10T20:59:47.966Z,8.75
2023-06-10T21:02:15.947Z,8.20
2023-06-10T21:04:43.621Z,7.45
2023-06-10T21:07:12.212Z,7.87
2023-06-10T21:09:40.122Z,8.40
2023-06-10T21:12:08.010Z,8.05
2023-06-10T21:14:35.667Z,7.97
2023-06-10T21:17:03.637Z,7.75
2023-06-10T21:19:31.139Z,7.90
2023-06-10T21:21:58.718Z,7.28
2023-06-10T21:24:26.561Z,8.32
2023-06-10T21:26:54.815Z,10.13
2023-06-10T21:29:23.882Z,8.90
2023-06-10T21:31:52.319Z,7.83
2023-06-10T21:34:19.888Z,8.38
2023-06-10T21:36:47.352Z,8.63
2023-06-10T21:39:15.688Z,9.88
2023-06-10T21:41:43.168Z,8.35
2023-06-10T21:44:10.836Z,8.23
2023-06-10T21:46:38.873Z,8.48
2023-06-10T21:49:06.500Z,10.07
2023-06-10T21:51:34.039Z,8.35
2023-06-10T21:54:01.862Z,8.82
2023-06-10T21:56:32.705Z,8.50
2023-06-10T21:59:01.063Z,9.52
2023-06-10T22:01:29.085Z,10.65
2023-06-10T22:03:57.094Z,8.43
2023-06-10T22:06:24.855Z,9.50
2023-06-10T22:08:52.388Z,14.63
2023-06-10T22:11:21.327Z,12.37
2023-06-10T22:13:49.366Z,8.00
2023-06-10T22:16:17.008Z,10.45
2023-06-10T22:18:44.963Z,8.65
2023-06-10T22:21:12.521Z,10.33
2023-06-10T22:23:40.116Z,10.63
2023-06-10T22:26:07.969Z,11.38
2023-06-10T22:28:36.030Z,9.98
2023-06-10T22:31:03.572Z,10.68
2023-06-10T22:33:31.461Z,11.33
2023-06-10T22:35:59.020Z,9.70
2023-06-10T22:38:26.556Z,8.90
2023-06-10T22:40:54.409Z,9.55
2023-06-10T22:43:21.913Z,9.88
2023-06-10T22:45:49.477Z,10.23
2023-06-10T22:48:17.407Z,9.02
2023-06-10T22:50:44.966Z,9.60
2023-06-10T22:53:12.485Z,9.10
2023-06-10T22:55:40.453Z,9.15
2023-06-10T22:58:07.987Z,8.77
2023-06-10T23:00:35.498Z,10.82
2023-06-10T23:03:03.528Z,10.07
2023-06-10T23:05:31.108Z,9.80
2023-06-10T23:07:58.661Z,9.07
2023-06-10T23:10:26.465Z,11.27
2023-06-10T23:12:54.023Z,9.40
2023-06-10T23:15:21.595Z,10.27
2023-06-10T23:17:49.650Z,14.80
2023-06-10T23:20:21.003Z,12.93
2023-06-10T23:22:52.913Z,14.57
2023-06-10T23:25:21.911Z,12.32
2023-06-10T23:27:50.155Z,9.27
2023-06-10T23:30:17.913Z,10.80
2023-06-10T23:32:45.666Z,9.80
2023-06-10T23:35:20.001Z,10.87
2023-06-10T23:37:48.067Z,13.35
2023-06-10T23:40:16.254Z,11.05
2023-06-10T23:42:43.730Z,12.45
2023-06-10T23:45:12.233Z,10.23
2023-06-10T23:47:40.777Z,11.97
2023-06-10T23:50:08.924Z,12.00
2023-06-10T23:52:36.763Z,13.68
2023-06-10T23:55:05.110Z,10.57
2023-06-10T23:57:32.601Z,10.90
